createdAt,value
2022-09-20T00:01:28.777Z,10.80
2022-09-20T00:03:58.933Z,10.80
2022-09-20T00:06:29.465Z,10.80
2022-09-20T00:08:57.516Z,10.80
2022-09-20T00:11:27.832Z,10.80
2022-09-20T00:13:57.521Z,10.80
2022-09-20T00:16:30.299Z,10.80
2022-09-20T00:19:00.355Z,10.80
2022-09-20T00:21:30.142Z,10.80
2022-09-20T00:23:58.307Z,10.80
2022-09-20T00:26:27.831Z,10.80
2022-09-20T00:28:55.102Z,10.80
2022-09-20T00:31:22.931Z,10.80
2022-09-20T00:34:08.378Z,10.70
2022-09-20T00:36:36.104Z,10.70
2022-09-20T00:39:04.293Z,10.70
2022-09-20T00:41:33.045Z,10.70
2022-09-20T00:44:01.658Z,10.70
2022-09-20T00:46:32.411Z,10.70
2022-09-20T00:49:18.553Z,10.60
2022-09-20T00:51:50.765Z,10.60
2022-09-20T00:54:20.906Z,10.60
2022-09-20T00:56:49.560Z,10.50
2022-09-20T00:59:39.421Z,10.50
2022-09-20T01:02:15.667Z,10.50
2022-09-20T01:04:45.434Z,10.50
2022-09-20T01:07:16.253Z,10.50
2022-09-20T01:09:44.023Z,10.40
2022-09-20T01:12:16.796Z,10.50
2022-09-20T01:14:47.013Z,10.40
2022-09-20T01:17:14.810Z,10.40
2022-09-20T01:20:20.621Z,10.40
2022-09-20T01:23:14.195Z,10.40
2022-09-20T01:26:18.928Z,10.40
2022-09-20T01:28:48.317Z,10.40
2022-09-20T01:31:32.093Z,10.40
2022-09-20T01:34:04.685Z,10.40
2022-09-20T01:36:39.232Z,10.50
2022-09-20T01:39:21.010Z,10.50
2022-09-20T01:42:01.456Z,10.50
2022-09-20T01:44:31.421Z,10.40
2022-09-20T01:47:17.115Z,10.40
2022-09-20T01:49:56.214Z,10.40
2022-09-20T01:52:38.660Z,10.40
2022-09-20T01:55:18.194Z,10.40
2022-09-20T01:58:04.553Z,10.40
2022-09-20T02:00:38.037Z,10.40
2022-09-20T02:03:27.535Z,10.40
2022-09-20T02:06:14.061Z,10.40
2022-09-20T02:09:00.338Z,10.40
2022-09-20T02:11:54.492Z,10.40
2022-09-20T02:14:42.286Z,10.40
2022-09-20T02:17:14.205Z,10.40
2022-09-20T02:19:46.989Z,10.40
2022-09-20T02:22:32.306Z,10.40
2022-09-20T02:25:23.327Z,10.30
2022-09-20T02:28:23.117Z,10.30
2022-09-20T02:31:19.183Z,10.30
2022-09-20T02:34:34.134Z,10.20
2022-09-20T02:37:26.063Z,10.10
2022-09-20T02:40:17.514Z,10.00
2022-09-20T02:42:52.509Z,9.90
2022-09-20T02:45:28.948Z,9.90
2022-09-20T02:48:03.173Z,9.90
2022-09-20T02:51:13.628Z,9.80
2022-09-20T02:54:01.878Z,9.80
2022-09-20T02:56:58.015Z,9.80
2022-09-20T02:59:47.389Z,9.80
2022-09-20T03:02:40.490Z,9.80
2022-09-20T03:05:14.749Z,9.80
2022-09-20T03:08:30.265Z,9.70
2022-09-20T03:11:20.058Z,9.80
2022-09-20T03:14:11.165Z,9.70
2022-09-20T03:16:53.947Z,9.60
2022-09-20T03:19:34.169Z,9.60
2022-09-20T03:22:28.679Z,9.60
2022-09-20T03:25:14.530Z,9.60
2022-09-20T03:28:03.475Z,9.70
2022-09-20T03:31:08.662Z,9.70
2022-09-20T03:34:06.138Z,9.80
2022-09-20T03:36:45.283Z,9.80
2022-09-20T03:39:15.925Z,9.80
2022-09-20T03:42:01.929Z,9.80
2022-09-20T03:45:06.219Z,9.80
2022-09-20T03:47:52.748Z,9.70
2022-09-20T03:50:43.152Z,9.80
2022-09-20T03:53:48.704Z,9.90
2022-09-20T03:56:53.812Z,9.80
2022-09-20T03:59:41.113Z,9.80
2022-09-20T04:02:20.879Z,9.80
2022-09-20T04:05:04.348Z,9.90
2022-09-20T04:07:56.197Z,9.90
2022-09-20T04:10:45.753Z,9.90
2022-09-20T04:13:27.008Z,9.90
2022-09-20T04:16:25.212Z,10.00
2022-09-20T04:19:12.744Z,10.00
2022-09-20T04:21:57.399Z,9.90
2022-09-20T04:24:54.282Z,10.00
2022-09-20T04:27:44.251Z,9.90
2022-09-20T04:30:14.506Z,9.90
2022-09-20T04:33:09.160Z,9.90
2022-09-20T04:35:57.668Z,9.90
2022-09-20T04:38:26.934Z,9.90
2022-09-20T04:41:41.962Z,9.90
2022-09-20T04:44:46.431Z,9.90
2022-09-20T04:47:34.663Z,10.00
2022-09-20T04:50:21.002Z,10.00
2022-09-20T04:53:16.076Z,10.00
2022-09-20T04:55:49.405Z,10.00
2022-09-20T04:58:33.302Z,10.00
2022-09-20T05:01:32.149Z,10.00
2022-09-20T05:04:38.287Z,10.00
2022-09-20T05:07:39.831Z,10.00
2022-09-20T05:10:41.108Z,9.90
2022-09-20T05:13:28.608Z,9.90
2022-09-20T05:16:08.410Z,9.90
2022-09-20T05:18:54.216Z,9.90
2022-09-20T05:21:37.376Z,10.00
2022-09-20T05:24:35.146Z,10.00
2022-09-20T05:27:15.811Z,10.10
2022-09-20T05:29:56.915Z,10.10
2022-09-20T05:32:42.779Z,10.00
2022-09-20T05:35:22.643Z,10.10
2022-09-20T05:38:12.846Z,10.10
2022-09-20T05:41:23.800Z,10.10
2022-09-20T05:44:13.371Z,10.10
2022-09-20T05:46:58.949Z,10.10
2022-09-20T05:49:55.613Z,10.10
2022-09-20T05:52:46.920Z,10.10
2022-09-20T05:55:22.580Z,10.10
2022-09-20T05:58:02.244Z,10.10
2022-09-20T06:00:47.167Z,10.20
2022-09-20T06:03:35.059Z,10.20
2022-09-20T06:06:10.051Z,10.30
2022-09-20T06:09:34.466Z,10.20
2022-09-20T06:12:14.006Z,10.20
2022-09-20T06:14:51.237Z,10.30
2022-09-20T06:17:31.514Z,10.30
2022-09-20T06:20:11.897Z,10.30
2022-09-20T06:22:47.607Z,10.30
2022-09-20T06:25:22.865Z,10.30
2022-09-20T06:27:56.388Z,10.40
2022-09-20T06:30:32.615Z,10.40
2022-09-20T06:33:13.340Z,10.40
2022-09-20T06:35:44.120Z,10.40
2022-09-20T06:38:57.258Z,10.40
2022-09-20T06:41:28.678Z,10.40
2022-09-20T06:44:02.264Z,10.50
2022-09-20T06:46:31.955Z,10.60
2022-09-20T06:48:59.950Z,10.70
2022-09-20T06:51:30.027Z,10.80
2022-09-20T06:53:58.985Z,10.90
2022-09-20T06:56:29.775Z,11.00
2022-09-20T06:58:56.644Z,11.10
2022-09-20T07:01:30.190Z,11.00
2022-09-20T07:03:58.889Z,11.10
2022-09-20T07:06:27.349Z,11.20
2022-09-20T07:08:54.252Z,11.20
2022-09-20T07:11:23.371Z,11.30
2022-09-20T07:13:53.568Z,11.40
2022-09-20T07:16:22.585Z,11.50
2022-09-20T07:18:52.816Z,11.60
2022-09-20T07:21:22.166Z,11.70
2022-09-20T07:23:50.275Z,11.70
2022-09-20T07:26:30.411Z,11.80
2022-09-20T07:28:59.541Z,11.80
2022-09-20T07:31:27.616Z,11.80
2022-09-20T07:33:55.556Z,11.90
2022-09-20T07:36:22.830Z,11.90
2022-09-20T07:38:53.282Z,11.90
2022-09-20T07:41:23.456Z,12.00
2022-09-20T07:43:51.356Z,12.10
2022-09-20T07:46:22.387Z,12.00
2022-09-20T07:48:50.791Z,12.00
2022-09-20T07:54:06.351Z,12.10
2022-09-20T07:56:34.295Z,12.10
2022-09-20T07:59:02.122Z,12.20
2022-09-20T08:01:30.012Z,12.20
2022-09-20T08:03:58.538Z,12.20
2022-09-20T08:06:27.460Z,12.20
2022-09-20T08:08:56.042Z,12.20
2022-09-20T08:11:28.782Z,12.20
2022-09-20T08:14:08.571Z,12.20
2022-09-20T08:16:44.891Z,12.20
2022-09-20T08:19:22.911Z,12.10
2022-09-20T08:21:53.249Z,12.10
2022-09-20T08:24:20.733Z,12.20
2022-09-20T08:26:48.977Z,12.20
2022-09-20T08:29:15.989Z,12.20
2022-09-20T08:31:43.987Z,12.30
2022-09-20T08:34:13.328Z,12.30
2022-09-20T08:36:45.473Z,12.30
2022-09-20T08:42:19.408Z,12.30
2022-09-20T08:44:58.158Z,12.30
2022-09-20T08:47:44.936Z,12.30
2022-09-20T08:50:17.932Z,12.30
2022-09-20T08:52:48.939Z,12.30
2022-09-20T08:55:23.333Z,12.30
2022-09-20T08:57:57.870Z,12.40
2022-09-20T09:00:30.897Z,12.40
2022-09-20T09:03:07.489Z,12.50
2022-09-20T09:05:53.525Z,12.40
2022-09-20T09:08:25.359Z,12.50
2022-09-20T09:10:58.689Z,12.40
2022-09-20T09:13:44.697Z,12.50
2022-09-20T09:16:21.987Z,12.50
2022-09-20T09:18:50.806Z,12.70
2022-09-20T09:21:21.791Z,12.80
2022-09-20T09:23:53.819Z,12.90
2022-09-20T09:26:26.395Z,13.00
2022-09-20T09:29:20.671Z,13.00
2022-09-20T09:31:50.364Z,13.00
2022-09-20T09:34:33.192Z,13.00
2022-09-20T09:37:00.989Z,13.00
2022-09-20T09:39:34.523Z,13.00
2022-09-20T09:42:25.863Z,13.00
2022-09-20T09:44:52.742Z,12.90
2022-09-20T09:47:28.734Z,13.00
2022-09-20T09:50:01.075Z,13.10
2022-09-20T09:52:33.507Z,13.20
2022-09-20T09:55:05.482Z,13.20
2022-09-20T09:57:59.232Z,13.20
2022-09-20T10:00:27.342Z,13.30
2022-09-20T10:03:01.551Z,13.30
2022-09-20T10:05:50.546Z,13.30
2022-09-20T10:08:23.692Z,13.40
2022-09-20T10:11:03.721Z,13.60
2022-09-20T10:13:55.188Z,13.80
2022-09-20T10:17:00.171Z,13.90
2022-09-20T10:20:11.643Z,14.10
2022-09-20T10:23:30.070Z,14.40
2022-09-20T10:26:08.709Z,14.50
2022-09-20T10:28:59.218Z,14.40
2022-09-20T10:31:52.982Z,14.20
2022-09-20T10:34:58.812Z,14.20
2022-09-20T10:37:53.022Z,14.40
2022-09-20T10:41:09.996Z,14.50
2022-09-20T10:43:59.219Z,14.80
2022-09-20T10:46:54.422Z,14.80
2022-09-20T10:49:28.849Z,15.00
2022-09-20T10:52:06.250Z,15.10
2022-09-20T10:54:51.466Z,15.20
2022-09-20T10:57:46.585Z,15.50
2022-09-20T11:00:42.995Z,15.50
2022-09-20T11:03:21.603Z,15.40
2022-09-20T11:06:00.186Z,15.50
2022-09-20T11:08:34.454Z,15.50
2022-09-20T11:11:12.364Z,15.40
2022-09-20T11:14:13.997Z,15.10
2022-09-20T11:16:57.725Z,14.90
2022-09-20T11:19:36.759Z,14.70
2022-09-20T11:22:11.933Z,14.70
2022-09-20T11:24:51.203Z,14.80
2022-09-20T11:27:30.086Z,14.80
2022-09-20T11:30:13.440Z,14.80
2022-09-20T11:33:15.905Z,14.90
2022-09-20T11:35:48.897Z,14.80
2022-09-20T11:38:25.267Z,14.70
2022-09-20T11:41:00.060Z,14.60
2022-09-20T11:43:30.909Z,14.50
2022-09-20T11:46:09.160Z,14.40
2022-09-20T11:48:47.776Z,14.20
2022-09-20T11:51:35.075Z,14.10
2022-09-20T11:54:15.153Z,14.10
2022-09-20T11:56:51.980Z,14.00
2022-09-20T11:59:41.760Z,14.00
2022-09-20T12:02:37.588Z,14.00
2022-09-20T12:05:08.019Z,14.10
2022-09-20T12:07:38.338Z,14.10
2022-09-20T12:10:26.177Z,14.20
2022-09-20T12:13:03.549Z,14.30
2022-09-20T12:15:36.174Z,14.40
2022-09-20T12:18:26.468Z,14.50
2022-09-20T12:20:58.793Z,14.60
2022-09-20T12:23:41.026Z,14.70
2022-09-20T12:26:23.667Z,14.80
2022-09-20T12:29:05.301Z,14.90
2022-09-20T12:31:32.817Z,14.80
2022-09-20T12:34:15.323Z,14.70
2022-09-20T12:36:44.656Z,14.50
2022-09-20T12:39:15.306Z,14.40
2022-09-20T12:41:55.943Z,14.40
2022-09-20T12:44:45.278Z,14.40
2022-09-20T12:47:12.668Z,14.40
2022-09-20T12:50:05.099Z,14.40
2022-09-20T12:52:53.591Z,14.40
2022-09-20T12:55:36.713Z,14.20
2022-09-20T12:58:57.213Z,13.90
2022-09-20T13:01:55.942Z,13.50
2022-09-20T13:04:55.800Z,13.10
2022-09-20T13:07:33.903Z,12.80
2022-09-20T13:10:29.551Z,12.60
2022-09-20T13:13:31.575Z,12.50
2022-09-20T13:16:06.954Z,12.40
2022-09-20T13:22:23.633Z,12.30
2022-09-20T13:24:58.178Z,12.40
2022-09-20T13:27:41.093Z,12.40
2022-09-20T13:33:42.483Z,12.20
2022-09-20T13:49:47.910Z,12.10
2022-09-20T13:52:28.847Z,12.10
2022-09-20T13:54:58.545Z,12.10
2022-09-20T13:57:30.863Z,12.10
2022-09-20T14:00:00.223Z,12.20
2022-09-20T14:06:10.768Z,12.10
2022-09-20T14:08:49.645Z,12.10
2022-09-20T14:11:22.019Z,12.10
2022-09-20T14:13:57.098Z,12.00
2022-09-20T14:16:52.169Z,11.90
2022-09-20T14:19:32.097Z,11.80
2022-09-20T14:22:04.530Z,11.80
2022-09-20T14:24:37.954Z,11.70
2022-09-20T14:27:43.624Z,11.70
2022-09-20T14:30:39.718Z,11.70
2022-09-20T14:33:24.086Z,11.70
2022-09-20T14:36:30.668Z,11.80
2022-09-20T14:39:04.569Z,11.80
2022-09-20T14:41:57.879Z,11.80
2022-09-20T14:44:34.183Z,11.70
2022-09-20T14:47:14.609Z,11.70
2022-09-20T14:49:44.982Z,11.70
2022-09-20T14:52:28.660Z,11.70
2022-09-20T15:05:19.426Z,11.90
2022-09-20T15:08:03.947Z,11.90
2022-09-20T15:10:53.011Z,11.90
2022-09-20T15:14:16.981Z,11.90
2022-09-20T15:26:47.234Z,11.90
2022-09-20T15:45:53.170Z,11.90
2022-09-20T15:48:23.195Z,11.90
2022-09-20T15:51:04.370Z,11.90
2022-09-20T15:53:39.853Z,11.90
2022-09-20T15:56:24.416Z,11.90
2022-09-20T15:58:59.187Z,11.90
2022-09-20T16:01:38.665Z,12.00
2022-09-20T16:04:15.130Z,11.90
2022-09-20T16:06:43.809Z,11.90
2022-09-20T16:09:10.986Z,11.90
2022-09-20T16:11:38.927Z,11.90
2022-09-20T16:14:06.582Z,11.90
2022-09-20T16:16:39.947Z,11.90
2022-09-20T16:19:20.485Z,11.80
2022-09-20T16:21:58.935Z,11.80
2022-09-20T16:24:34.691Z,11.80
2022-09-20T16:27:06.910Z,11.80
2022-09-20T16:29:50.205Z,11.80
2022-09-20T16:32:22.397Z,11.70
2022-09-20T16:34:51.525Z,11.60
2022-09-20T16:37:19.412Z,11.50
2022-09-20T16:39:55.753Z,11.50
2022-09-20T16:42:36.412Z,11.40
2022-09-20T16:45:08.297Z,11.30
2022-09-20T16:47:42.008Z,11.30
2022-09-20T16:50:11.032Z,11.30
2022-09-20T16:52:42.536Z,11.30
2022-09-20T16:55:12.503Z,11.20
2022-09-20T16:57:40.206Z,11.20
2022-09-20T17:00:12.789Z,11.10
2022-09-20T17:02:47.888Z,11.00
2022-09-20T17:05:19.131Z,11.00
2022-09-20T17:07:47.161Z,11.00
2022-09-20T17:10:22.372Z,10.90
2022-09-20T17:13:01.406Z,10.90
2022-09-20T17:15:44.359Z,10.90
2022-09-20T17:18:15.741Z,10.90
2022-09-20T17:20:46.285Z,10.80
2022-09-20T17:23:14.289Z,10.80
2022-09-20T17:25:44.028Z,10.80
2022-09-20T17:28:11.831Z,10.70
2022-09-20T17:30:39.548Z,10.70
2022-09-20T17:33:15.511Z,10.70
2022-09-20T17:35:55.222Z,10.60
2022-09-20T17:38:26.587Z,10.60
2022-09-20T17:41:01.755Z,10.50
2022-09-20T17:43:37.944Z,10.50
2022-09-20T17:46:15.619Z,10.50
2022-09-20T17:48:49.215Z,10.50
2022-09-20T17:51:19.429Z,10.50
2022-09-20T17:53:47.829Z,10.40
2022-09-20T17:56:16.195Z,10.30
2022-09-20T17:58:45.282Z,10.40
2022-09-20T18:01:15.650Z,10.30
2022-09-20T18:03:47.396Z,10.20
2022-09-20T18:06:25.415Z,10.20
2022-09-20T18:08:59.208Z,10.20
2022-09-20T18:11:49.396Z,10.10
2022-09-20T18:14:24.399Z,10.10
2022-09-20T18:16:55.550Z,10.00
2022-09-20T18:19:33.986Z,10.00
2022-09-20T18:22:08.604Z,10.00
2022-09-20T18:24:37.786Z,9.90
2022-09-20T18:27:08.550Z,9.90
2022-09-20T18:29:42.431Z,9.90
2022-09-20T18:32:13.735Z,9.90
2022-09-20T18:34:41.858Z,9.80
2022-09-20T18:37:14.442Z,9.80
2022-09-20T18:39:43.580Z,9.80
2022-09-20T18:42:11.463Z,9.80
2022-09-20T18:44:44.384Z,9.80
2022-09-20T18:47:12.277Z,9.80
2022-09-20T18:49:42.574Z,9.80
2022-09-20T18:52:13.011Z,9.80
2022-09-20T18:54:41.199Z,9.70
2022-09-20T18:57:12.895Z,9.70
2022-09-20T18:59:53.401Z,9.60
2022-09-20T19:02:22.428Z,9.60
2022-09-20T19:05:19.554Z,9.60
2022-09-20T19:08:05.992Z,9.60
2022-09-20T19:10:52.207Z,9.60
2022-09-20T19:13:27.080Z,9.50
2022-09-20T19:16:16.832Z,9.50
2022-09-20T19:19:14.235Z,9.40
2022-09-20T19:22:08.663Z,9.50
2022-09-20T19:25:03.259Z,9.50
2022-09-20T19:27:34.883Z,9.50
2022-09-20T19:30:03.158Z,9.50
2022-09-20T19:32:31.692Z,9.50
2022-09-20T19:35:02.883Z,9.50
2022-09-20T19:38:01.983Z,9.60
2022-09-20T19:40:50.145Z,9.60
2022-09-20T19:43:37.264Z,9.60
2022-09-20T19:46:38.149Z,9.60
2022-09-20T19:49:21.869Z,9.60
2022-09-20T19:51:51.684Z,9.50
2022-09-20T19:54:21.562Z,9.50
2022-09-20T19:56:57.062Z,9.50
2022-09-20T19:59:27.547Z,9.50
2022-09-20T20:01:56.816Z,9.50
2022-09-20T20:04:29.112Z,9.40
2022-09-20T20:07:28.528Z,9.40
2022-09-20T20:10:35.234Z,9.40
2022-09-20T20:13:43.033Z,9.40
2022-09-20T20:16:19.847Z,9.40
2022-09-20T20:18:59.659Z,9.40
2022-09-20T20:21:39.505Z,9.40
2022-09-20T20:24:47.229Z,9.40
2022-09-20T20:27:15.387Z,9.40
2022-09-20T20:29:46.932Z,9.40
2022-09-20T20:32:17.784Z,9.40
2022-09-20T20:34:46.425Z,9.40
2022-09-20T20:37:15.445Z,9.40
2022-09-20T20:39:48.710Z,9.40
2022-09-20T20:42:22.361Z,9.30
2022-09-20T20:44:51.529Z,9.30
2022-09-20T20:47:22.488Z,9.30
2022-09-20T20:49:54.123Z,9.30
2022-09-20T20:52:21.573Z,9.30
2022-09-20T20:54:52.453Z,9.30
2022-09-20T20:57:21.548Z,9.20
2022-09-20T20:59:49.083Z,9.20
2022-09-20T21:02:18.087Z,9.20
2022-09-20T21:04:46.456Z,9.20
2022-09-20T21:07:15.230Z,9.20
2022-09-20T21:09:43.590Z,9.20
2022-09-20T21:12:17.992Z,9.10
2022-09-20T21:14:49.422Z,9.10
2022-09-20T21:17:16.909Z,9.10
2022-09-20T21:19:45.452Z,9.10
2022-09-20T21:22:14.548Z,9.10
2022-09-20T21:25:36.628Z,9.00
2022-09-20T21:28:04.268Z,9.00
2022-09-20T21:30:32.147Z,9.00
2022-09-20T21:33:00.588Z,9.00
2022-09-20T21:35:29.545Z,8.90
2022-09-20T21:37:57.849Z,8.90
2022-09-20T21:40:27.570Z,8.90
2022-09-20T21:42:58.055Z,8.80
2022-09-20T21:45:29.315Z,8.80
2022-09-20T21:47:56.793Z,8.80
2022-09-20T21:50:23.984Z,8.80
2022-09-20T21:52:52.262Z,8.80
2022-09-20T21:55:19.815Z,8.80
2022-09-20T21:57:47.295Z,8.80
2022-09-20T22:00:15.644Z,8.80
2022-09-20T22:02:43.269Z,8.70
2022-09-20T22:05:12.426Z,8.70
2022-09-20T22:07:50.117Z,8.70
2022-09-20T22:10:18.194Z,8.70
2022-09-20T22:12:45.607Z,8.60
2022-09-20T22:15:13.073Z,8.60
2022-09-20T22:17:41.410Z,8.60
2022-09-20T22:20:12.111Z,8.60
2022-09-20T22:22:39.662Z,8.50
2022-09-20T22:25:08.480Z,8.60
2022-09-20T22:27:36.642Z,8.50
2022-09-20T22:30:05.273Z,8.50
2022-09-20T22:32:36.061Z,8.50
2022-09-20T22:35:04.459Z,8.50
2022-09-20T22:37:32.192Z,8.50
2022-09-20T22:40:00.601Z,8.40
2022-09-20T22:42:30.947Z,8.50
2022-09-20T22:44:59.787Z,8.40
2022-09-20T22:47:27.036Z,8.30
2022-09-20T22:49:54.816Z,8.30
2022-09-20T22:52:22.029Z,8.30
2022-09-20T22:54:49.646Z,8.30
2022-09-20T22:57:20.391Z,8.20
2022-09-20T22:59:47.993Z,8.20
2022-09-20T23:02:16.136Z,8.10
2022-09-20T23:04:46.321Z,8.10
2022-09-20T23:07:14.598Z,8.10
2022-09-20T23:09:46.838Z,8.10
2022-09-20T23:14:57.657Z,8.10
2022-09-20T23:17:25.512Z,8.00
2022-09-20T23:19:53.118Z,8.10
2022-09-20T23:22:20.860Z,8.00
2022-09-20T23:24:49.245Z,8.00
2022-09-20T23:27:17.960Z,7.90
2022-09-20T23:29:45.586Z,7.90
2022-09-20T23:32:13.172Z,7.90
2022-09-20T23:34:40.360Z,7.80
2022-09-20T23:37:08.376Z,7.80
2022-09-20T23:39:36.446Z,7.80
2022-09-20T23:42:06.011Z,7.70
2022-09-20T23:44:37.386Z,7.70
2022-09-20T23:47:05.360Z,7.70
2022-09-20T23:49:37.358Z,7.70
2022-09-20T23:52:05.126Z,7.70
2022-09-20T23:54:33.435Z,7.70
2022-09-20T23:57:01.318Z,7.60
2022-09-20T23:59:29.149Z,7.60
